Time;durP1;ratioP1;P1;durP2;ratioP2;P2;SDS_P1;SDS_P2;PMS_P1;PMS_P2;Temp;Humidity;BMP_temperature;BMP_pressure;BME280_temperature;BME280_humidity;BME280_pressure;Samples;Min_cycle;Max_cycle;Signal;HPM_P1;HPM_P2
2021/12/06 00:01:06;;;;;;;32.25;15.63;;;0.90;99.90;;;;;;5038982;28;20060;-80
2021/12/06 00:03:52;;;;;;;36.60;17.85;;;0.90;99.90;;;;;;5056703;28;20051;-81
2021/12/06 00:06:19;;;;;;;30.90;16.00;;;0.90;99.90;;;;;;5038537;28;20041;-80
2021/12/06 00:08:45;;;;;;;34.72;17.23;;;0.90;99.90;;;;;;5056665;28;20542;-80
2021/12/06 00:11:11;;;;;;;43.10;19.73;;;0.90;99.90;;;;;;5038265;28;20128;-80
2021/12/06 00:13:40;;;;;;;35.88;18.40;;;0.90;99.90;;;;;;5056303;28;20037;-81
2021/12/06 00:16:10;;;;;;;34.03;17.10;;;0.90;99.90;;;;;;5057141;28;20040;-80
2021/12/06 00:18:37;;;;;;;38.90;17.50;;;0.90;99.90;;;;;;5072303;28;20040;-81
2021/12/06 00:21:04;;;;;;;36.25;17.60;;;0.90;99.90;;;;;;5055655;28;20043;-80
2021/12/06 00:23:30;;;;;;;33.95;16.08;;;0.90;99.90;;;;;;5038173;28;20125;-80
2021/12/06 00:25:56;;;;;;;33.83;16.48;;;0.90;99.90;;;;;;5038296;28;20475;-81
2021/12/06 00:28:23;;;;;;;42.75;20.05;;;0.90;99.90;;;;;;5038355;28;20036;-80
2021/12/06 00:30:51;;;;;;;36.80;17.92;;;0.90;99.90;;;;;;5037921;28;20489;-80
2021/12/06 00:33:17;;;;;;;32.45;16.13;;;0.90;99.90;;;;;;5055908;28;20044;-79
2021/12/06 00:35:42;;;;;;;35.60;17.70;;;0.90;99.90;;;;;;5056026;28;20029;-79
2021/12/06 00:38:08;;;;;;;34.35;16.88;;;0.90;99.90;;;;;;5055825;28;20029;-80
2021/12/06 00:40:42;;;;;;;31.85;15.80;;;0.90;99.90;;;;;;5055616;28;20471;-80
2021/12/06 00:43:08;;;;;;;37.30;17.20;;;0.90;99.90;;;;;;5055683;28;20029;-80
2021/12/06 00:45:35;;;;;;;37.55;17.77;;;0.90;99.90;;;;;;5055929;28;20029;-79
2021/12/06 00:48:01;;;;;;;40.50;19.70;;;0.90;99.90;;;;;;5055269;28;20471;-80
2021/12/06 00:50:29;;;;;;;34.58;17.23;;;0.90;99.90;;;;;;5055697;28;20467;-80
2021/12/06 00:52:56;;;;;;;30.73;15.40;;;0.90;99.90;;;;;;5038090;28;20521;-80
2021/12/06 00:55:23;;;;;;;31.17;14.93;;;0.90;99.90;;;;;;5037614;28;20045;-80
2021/12/06 00:57:52;;;;;;;30.90;14.82;;;0.90;99.90;;;;;;5037782;28;20055;-79
2021/12/06 01:00:25;;;;;;;30.65;14.35;;;0.90;99.90;;;;;;5037487;28;20033;-80
2021/12/06 01:02:52;;;;;;;30.13;14.60;;;1.00;99.90;;;;;;5037455;28;20041;-80
2021/12/06 01:05:21;;;;;;;30.83;15.70;;;0.90;99.90;;;;;;5055694;28;20095;-80
2021/12/06 01:07:47;;;;;;;34.90;17.95;;;1.00;99.90;;;;;;5071108;28;20040;-80
2021/12/06 01:10:13;;;;;;;38.00;18.05;;;0.90;99.90;;;;;;5037935;28;20459;-80
2021/12/06 01:12:39;;;;;;;36.25;17.85;;;0.90;99.90;;;;;;5055174;28;20063;-80
2021/12/06 01:15:06;;;;;;;37.85;17.73;;;0.90;99.90;;;;;;5055176;28;20467;-80
2021/12/06 01:17:32;;;;;;;35.35;17.60;;;0.90;99.90;;;;;;5037842;28;20044;-80
2021/12/06 01:19:58;;;;;;;32.95;16.92;;;0.90;99.90;;;;;;5037858;28;20037;-80
2021/12/06 01:22:30;;;;;;;43.95;21.42;;;0.90;99.90;;;;;;5055696;28;20038;-80
2021/12/06 01:25:06;;;;;;;37.78;18.60;;;0.90;99.90;;;;;;5038160;28;20044;-80
2021/12/06 01:27:50;;;;;;;37.35;18.00;;;0.90;99.90;;;;;;5055371;28;20029;-80
2021/12/06 01:33:29;;;;;;;34.30;17.15;;;0.90;99.90;;;;;;5054637;28;20132;-80
2021/12/06 01:41:19;;;;;;;29.95;14.15;;;0.90;99.90;;;;;;5055108;28;20086;-80
2021/12/06 01:44:11;;;;;;;30.98;14.60;;;0.90;99.90;;;;;;5055166;28;20033;-80
2021/12/06 01:46:52;;;;;;;30.10;14.65;;;0.90;99.90;;;;;;5037105;28;20360;-80
2021/12/06 01:49:21;;;;;;;34.42;15.82;;;0.90;99.90;;;;;;5036746;28;20065;-79
2021/12/06 01:51:48;;;;;;;30.58;14.82;;;0.90;99.90;;;;;;5054639;28;20120;-79
2021/12/06 01:54:16;;;;;;;31.88;14.50;;;0.90;99.90;;;;;;5037403;28;20045;-79
2021/12/06 01:56:42;;;;;;;31.73;14.98;;;0.90;99.90;;;;;;5036558;28;20053;-79
2021/12/06 01:59:08;;;;;;;28.58;13.77;;;1.00;99.90;;;;;;5054850;28;20041;-79
2021/12/06 02:01:34;;;;;;;29.48;14.55;;;0.90;99.90;;;;;;5054895;28;20039;-79
2021/12/06 02:04:01;;;;;;;33.17;15.23;;;0.90;99.90;;;;;;5054561;28;20120;-79
2021/12/06 02:06:27;;;;;;;35.40;16.48;;;0.90;99.90;;;;;;5036631;28;20037;-79
2021/12/06 02:08:53;;;;;;;37.25;16.48;;;0.90;99.90;;;;;;5036529;28;20498;-79
2021/12/06 02:11:22;;;;;;;33.95;15.27;;;0.90;99.90;;;;;;5036658;28;20037;-79
2021/12/06 02:14:06;;;;;;;32.80;14.75;;;0.90;99.90;;;;;;5054404;28;20029;-79
2021/12/06 02:16:56;;;;;;;30.23;14.63;;;0.90;99.90;;;;;;5054615;28;20036;-79
2021/12/06 02:19:29;;;;;;;37.67;17.08;;;0.90;99.90;;;;;;5054251;28;20037;-79
2021/12/06 02:21:55;;;;;;;35.10;16.50;;;0.90;99.90;;;;;;5054272;28;20124;-79
2021/12/06 02:24:21;;;;;;;37.72;15.88;;;0.90;99.90;;;;;;5054212;28;20384;-79
2021/12/06 02:26:47;;;;;;;32.13;14.52;;;0.90;99.90;;;;;;5053858;28;20067;-79
2021/12/06 02:29:14;;;;;;;32.78;14.68;;;0.90;99.90;;;;;;5036965;28;20065;-79
2021/12/06 02:31:40;;;;;;;31.65;14.15;;;0.90;99.90;;;;;;5036118;28;20047;-79
2021/12/06 02:34:06;;;;;;;32.50;14.57;;;0.90;99.90;;;;;;5036293;28;20037;-79
2021/12/06 02:36:32;;;;;;;30.35;14.27;;;0.90;99.90;;;;;;5054186;28;20132;-79
2021/12/06 02:38:58;;;;;;;36.10;15.68;;;1.00;99.90;;;;;;5036691;28;20052;-79
2021/12/06 02:41:25;;;;;;;31.50;15.18;;;1.00;99.90;;;;;;5053886;28;20036;-79
2021/12/06 02:43:52;;;;;;;31.00;15.35;;;1.00;99.90;;;;;;5053641;28;20113;-79
2021/12/06 02:46:19;;;;;;;32.15;15.18;;;0.90;99.90;;;;;;5054033;28;20033;-79
2021/12/06 02:48:45;;;;;;;35.25;14.75;;;1.00;99.90;;;;;;5053756;28;20091;-79
2021/12/06 02:51:13;;;;;;;47.45;18.08;;;1.00;99.90;;;;;;5035866;28;20040;-80
2021/12/06 02:53:39;;;;;;;33.88;15.02;;;1.00;99.90;;;;;;5035871;28;20045;-79
2021/12/06 02:56:18;;;;;;;43.78;18.40;;;1.00;99.90;;;;;;5053907;28;20052;-80
2021/12/06 03:01:16;;;;;;;33.30;15.50;;;1.00;99.90;;;;;;5053974;28;20072;-79
2021/12/06 03:03:48;;;;;;;41.28;17.40;;;1.00;99.90;;;;;;5053920;28;20478;-79
2021/12/06 03:06:17;;;;;;;34.40;15.77;;;1.00;99.90;;;;;;5053471;28;20045;-80
2021/12/06 03:08:55;;;;;;;45.13;19.73;;;1.00;99.90;;;;;;5035616;28;20041;-81
2021/12/06 03:11:28;;;;;;;45.08;18.58;;;1.00;99.90;;;;;;5054248;28;20039;-80
2021/12/06 03:13:55;;;;;;;35.42;16.25;;;1.00;99.90;;;;;;5053452;28;20075;-80
2021/12/06 03:16:21;;;;;;;34.78;15.98;;;1.00;99.90;;;;;;5035907;28;20037;-80
2021/12/06 03:18:48;;;;;;;42.65;18.30;;;1.00;99.90;;;;;;5035808;28;20529;-79
2021/12/06 03:21:16;;;;;;;46.20;19.70;;;1.00;99.90;;;;;;5053338;28;20155;-79
2021/12/06 03:23:42;;;;;;;42.97;18.50;;;1.00;99.90;;;;;;5053506;28;20037;-80
2021/12/06 03:26:08;;;;;;;39.92;18.20;;;1.00;99.90;;;;;;5053947;28;20033;-80
2021/12/06 03:28:42;;;;;;;42.45;17.85;;;1.00;99.90;;;;;;5054085;28;20032;-80
2021/12/06 03:31:09;;;;;;;36.85;16.58;;;1.00;99.90;;;;;;5036445;28;20048;-79
2021/12/06 03:33:37;;;;;;;40.63;17.55;;;1.00;99.90;;;;;;5053545;28;20041;-80
2021/12/06 03:36:06;;;;;;;39.75;18.73;;;1.10;99.90;;;;;;5053464;28;20109;-80
2021/12/06 03:38:33;;;;;;;42.28;18.48;;;1.10;99.90;;;;;;5037844;28;20029;-79
2021/12/06 03:40:59;;;;;;;41.63;17.50;;;1.10;99.90;;;;;;5053760;28;20048;-79
2021/12/06 03:43:24;;;;;;;34.28;15.38;;;1.10;99.90;;;;;;5053517;28;20487;-79
2021/12/06 03:45:50;;;;;;;35.33;16.10;;;1.10;99.90;;;;;;5053314;28;20033;-79
2021/12/06 03:48:16;;;;;;;39.90;17.67;;;1.10;99.90;;;;;;5031812;28;20392;-87
2021/12/06 03:50:42;;;;;;;41.65;18.73;;;1.10;99.90;;;;;;5053155;28;20037;-79
2021/12/06 03:53:08;;;;;;;41.72;18.55;;;1.10;99.90;;;;;;5053430;28;20041;-79
2021/12/06 03:55:34;;;;;;;45.22;20.13;;;1.10;99.90;;;;;;5053442;28;20582;-79
2021/12/06 03:57:59;;;;;;;41.83;18.63;;;1.10;99.90;;;;;;5054704;28;20487;-80
2021/12/06 04:00:25;;;;;;;42.30;18.95;;;1.10;99.90;;;;;;5055832;28;20037;-80
2021/12/06 04:02:52;;;;;;;47.70;19.40;;;1.10;99.90;;;;;;5055961;28;20441;-79
2021/12/06 04:05:18;;;;;;;39.55;18.00;;;1.10;99.90;;;;;;5056422;28;20561;-77
2021/12/06 04:07:43;;;;;;;51.60;19.73;;;1.10;99.90;;;;;;5057435;28;20073;-79
2021/12/06 04:10:10;;;;;;;49.90;20.52;;;1.20;99.90;;;;;;5057596;28;20072;-80
2021/12/06 04:12:37;;;;;;;49.78;19.92;;;1.10;99.90;;;;;;5055609;28;20043;-79
2021/12/06 04:15:07;;;;;;;48.30;20.80;;;1.20;99.90;;;;;;5057015;28;20479;-80
2021/12/06 04:17:32;;;;;;;35.92;16.50;;;1.10;99.90;;;;;;5056310;28;20184;-80
2021/12/06 04:19:58;;;;;;;46.55;18.55;;;1.10;99.90;;;;;;5055874;28;20064;-80
2021/12/06 04:22:24;;;;;;;47.88;19.60;;;1.10;99.90;;;;;;5055823;28;20037;-80
2021/12/06 04:24:50;;;;;;;48.83;19.25;;;1.20;99.90;;;;;;5057184;28;20467;-80
2021/12/06 04:27:18;;;;;;;44.88;18.00;;;1.10;99.90;;;;;;5057292;28;20033;-80
2021/12/06 04:29:47;;;;;;;46.03;18.48;;;1.10;99.90;;;;;;5055914;28;20037;-79
2021/12/06 04:32:13;;;;;;;46.85;19.75;;;1.10;99.90;;;;;;5056816;28;20036;-80
2021/12/06 04:34:40;;;;;;;41.17;17.75;;;1.10;99.90;;;;;;5055022;28;20095;-80
2021/12/06 04:37:06;;;;;;;38.47;16.40;;;1.10;99.90;;;;;;5055105;28;20132;-80
2021/12/06 04:39:33;;;;;;;40.47;17.05;;;1.10;99.90;;;;;;5054802;28;20039;-80
2021/12/06 04:41:58;;;;;;;38.60;15.65;;;1.20;99.90;;;;;;5055311;28;20473;-80
2021/12/06 04:44:24;;;;;;;48.60;19.20;;;1.10;99.90;;;;;;5055418;28;20061;-80
2021/12/06 04:46:50;;;;;;;38.67;16.27;;;1.10;99.90;;;;;;5054592;28;20029;-81
2021/12/06 04:49:16;;;;;;;36.42;16.10;;;1.20;99.90;;;;;;5056183;28;20033;-80
2021/12/06 04:51:45;;;;;;;41.15;17.20;;;1.20;99.90;;;;;;5054916;28;20036;-81
2021/12/06 04:54:13;;;;;;;40.25;17.13;;;1.20;99.90;;;;;;5055669;28;20470;-80
2021/12/06 04:56:49;;;;;;;38.47;16.35;;;1.30;99.90;;;;;;5054211;28;20060;-80
2021/12/06 04:59:35;;;;;;;47.75;18.90;;;1.30;99.90;;;;;;5054505;28;20037;-80
2021/12/06 05:02:24;;;;;;;48.88;20.70;;;1.30;99.90;;;;;;5056231;28;20041;-80
2021/12/06 05:04:52;;;;;;;47.22;20.27;;;1.20;99.90;;;;;;5054535;28;20095;-81
2021/12/06 05:07:28;;;;;;;41.67;17.00;;;1.30;99.90;;;;;;5054964;28;20037;-81
2021/12/06 05:09:55;;;;;;;43.97;17.60;;;1.20;99.90;;;;;;5054462;28;20036;-80
2021/12/06 05:12:24;;;;;;;43.15;16.73;;;1.20;99.90;;;;;;5054097;28;20498;-80
2021/12/06 05:14:50;;;;;;;37.50;16.75;;;1.30;99.90;;;;;;5055101;28;20036;-80
2021/12/06 05:17:16;;;;;;;37.45;16.15;;;1.30;99.90;;;;;;5054797;28;20419;-79
2021/12/06 05:19:42;;;;;;;45.83;18.40;;;1.30;99.90;;;;;;5055768;28;20120;-80
2021/12/06 05:22:09;;;;;;;45.13;19.13;;;1.30;99.90;;;;;;5055635;28;20113;-80
2021/12/06 05:24:35;;;;;;;43.67;17.63;;;1.30;99.90;;;;;;5054216;28;20136;-79
2021/12/06 05:27:00;;;;;;;52.90;19.90;;;1.30;99.90;;;;;;5053789;28;20526;-80
2021/12/06 05:29:29;;;;;;;48.03;19.13;;;1.30;99.90;;;;;;5054062;28;20036;-80
2021/12/06 05:31:57;;;;;;;44.97;19.10;;;1.30;99.90;;;;;;5058428;28;20052;-82
2021/12/06 05:34:32;;;;;;;46.70;17.27;;;1.30;99.90;;;;;;5056708;28;20128;-78
2021/12/06 05:36:59;;;;;;;41.85;17.13;;;1.30;99.90;;;;;;5053477;28;20041;-78
2021/12/06 05:39:30;;;;;;;44.92;18.40;;;1.40;99.90;;;;;;5053388;28;20037;-80
2021/12/06 05:42:01;;;;;;;40.15;17.17;;;1.40;99.90;;;;;;5054610;28;20483;-79
2021/12/06 05:44:27;;;;;;;41.17;17.60;;;1.40;99.90;;;;;;5053195;28;20075;-79
2021/12/06 05:46:54;;;;;;;36.33;16.70;;;1.40;99.90;;;;;;5054653;28;20098;-80
2021/12/06 05:49:20;;;;;;;51.95;22.52;;;1.40;99.90;;;;;;5053189;28;20068;-80
2021/12/06 05:51:46;;;;;;;48.95;21.27;;;1.40;99.90;;;;;;5054313;28;20072;-79
2021/12/06 05:54:12;;;;;;;43.67;20.40;;;1.50;99.90;;;;;;5053428;28;20538;-80
2021/12/06 05:56:37;;;;;;;45.70;20.35;;;1.40;99.90;;;;;;5058949;28;20052;-80
2021/12/06 05:59:03;;;;;;;55.05;20.65;;;1.50;99.90;;;;;;5056299;28;20067;-81
2021/12/06 06:01:30;;;;;;;49.47;20.98;;;1.50;99.90;;;;;;5056291;28;20066;-81
2021/12/06 06:04:01;;;;;;;50.75;20.73;;;1.50;99.90;;;;;;5056565;28;20036;-80
2021/12/06 06:06:29;;;;;;;57.38;24.38;;;1.50;99.90;;;;;;5074979;28;20037;-79
2021/12/06 06:08:54;;;;;;;44.95;20.75;;;1.50;99.90;;;;;;5056261;28;20463;-79
2021/12/06 06:11:20;;;;;;;42.13;19.30;;;1.60;99.90;;;;;;5055810;28;20094;-79
2021/12/06 06:13:46;;;;;;;41.58;17.80;;;1.60;99.90;;;;;;5073802;28;20039;-80
2021/12/06 06:16:17;;;;;;;52.17;22.25;;;1.60;99.90;;;;;;5074077;28;20102;-80
2021/12/06 06:18:43;;;;;;;40.17;18.08;;;1.60;99.90;;;;;;5056323;28;20038;-79
2021/12/06 06:21:09;;;;;;;41.70;18.30;;;1.60;99.90;;;;;;5056444;28;20365;-78
2021/12/06 06:23:35;;;;;;;33.92;15.68;;;1.60;99.90;;;;;;5074601;28;20094;-80
2021/12/06 06:26:04;;;;;;;36.05;16.55;;;1.70;99.90;;;;;;5074038;28;20033;-81
2021/12/06 06:28:30;;;;;;;41.50;18.65;;;1.70;99.90;;;;;;5074249;28;20028;-78
2021/12/06 06:30:55;;;;;;;42.97;20.52;;;1.70;99.90;;;;;;5055626;28;20363;-78
2021/12/06 06:33:21;;;;;;;49.38;22.02;;;1.70;99.90;;;;;;5055707;28;20044;-78
2021/12/06 06:35:47;;;;;;;61.40;24.63;;;1.80;99.90;;;;;;5055960;28;20028;-79
2021/12/06 06:38:14;;;;;;;59.78;24.63;;;1.80;99.90;;;;;;5055543;28;20474;-79
2021/12/06 06:40:40;;;;;;;60.35;24.35;;;1.80;99.90;;;;;;5073388;28;20056;-81
2021/12/06 06:43:06;;;;;;;50.08;22.42;;;1.80;99.90;;;;;;5054291;28;20496;-83
2021/12/06 06:45:31;;;;;;;46.03;19.17;;;1.90;99.90;;;;;;5072979;28;20036;-79
2021/12/06 06:47:57;;;;;;;49.72;21.63;;;1.80;99.90;;;;;;5073137;28;20064;-79
2021/12/06 06:50:23;;;;;;;39.22;19.00;;;1.90;99.90;;;;;;5055524;28;20047;-79
2021/12/06 06:52:50;;;;;;;42.20;18.52;;;1.80;99.90;;;;;;5055412;28;20070;-79
2021/12/06 06:55:16;;;;;;;35.53;16.45;;;1.90;99.90;;;;;;5055391;28;20075;-80
2021/12/06 06:57:43;;;;;;;34.17;16.42;;;1.90;99.90;;;;;;5055248;28;20052;-79
2021/12/06 07:00:13;;;;;;;37.05;17.52;;;1.90;99.90;;;;;;5073627;28;20098;-79
2021/12/06 07:02:39;;;;;;;40.53;19.00;;;2.00;99.90;;;;;;5073286;28;20039;-80
2021/12/06 07:05:05;;;;;;;38.10;17.00;;;2.00;99.90;;;;;;5073596;28;20068;-80
2021/12/06 07:07:32;;;;;;;39.17;17.63;;;2.00;99.90;;;;;;5073371;28;20033;-79
2021/12/06 07:09:57;;;;;;;44.70;20.38;;;2.00;99.90;;;;;;5072811;28;20040;-79
2021/12/06 07:12:23;;;;;;;51.72;23.20;;;2.00;99.90;;;;;;5072942;28;20386;-79
2021/12/06 07:14:49;;;;;;;40.63;19.67;;;2.00;99.90;;;;;;5072066;28;20032;-80
2021/12/06 07:17:16;;;;;;;48.85;22.23;;;2.00;99.90;;;;;;5071650;28;20039;-80
2021/12/06 07:19:42;;;;;;;46.35;21.30;;;2.00;99.90;;;;;;5054986;28;20032;-80
2021/12/06 07:22:09;;;;;;;46.25;21.35;;;2.00;99.90;;;;;;5055402;28;20474;-79
2021/12/06 07:24:35;;;;;;;42.22;19.50;;;2.00;99.90;;;;;;5055462;28;20066;-79
2021/12/06 07:27:01;;;;;;;48.55;21.80;;;2.10;99.90;;;;;;5074088;28;20111;-80
2021/12/06 07:29:27;;;;;;;51.35;24.38;;;2.10;99.90;;;;;;5074045;28;20032;-81
2021/12/06 07:31:53;;;;;;;46.60;21.23;;;2.10;99.90;;;;;;5076612;28;20374;-80
2021/12/06 07:34:19;;;;;;;46.85;21.52;;;2.10;99.90;;;;;;5077271;28;20381;-80
2021/12/06 07:36:45;;;;;;;46.50;21.65;;;2.10;99.90;;;;;;5077295;28;20035;-80
2021/12/06 07:39:11;;;;;;;46.42;20.45;;;2.10;99.90;;;;;;5059545;28;20036;-80
2021/12/06 07:41:37;;;;;;;43.47;20.10;;;2.20;99.90;;;;;;5077193;28;20043;-80
2021/12/06 07:44:04;;;;;;;44.78;20.10;;;2.20;99.90;;;;;;5077179;28;20033;-81
2021/12/06 07:46:30;;;;;;;36.97;18.35;;;2.20;99.90;;;;;;5077142;28;20028;-80
2021/12/06 07:48:56;;;;;;;36.58;18.02;;;2.30;99.90;;;;;;5059141;28;20062;-80
2021/12/06 07:51:24;;;;;;;37.13;19.08;;;2.30;99.90;;;;;;5076792;28;20030;-80
2021/12/06 07:53:51;;;;;;;45.58;20.50;;;2.30;99.90;;;;;;5059051;28;20475;-81
2021/12/06 07:56:17;;;;;;;38.03;19.10;;;2.30;99.90;;;;;;5058626;28;20032;-81
2021/12/06 07:58:43;;;;;;;45.88;21.30;;;2.40;99.90;;;;;;5076559;28;20032;-80
2021/12/06 08:01:09;;;;;;;47.63;22.25;;;2.40;99.90;;;;;;5077219;28;20036;-80
2021/12/06 08:03:37;;;;;;;42.15;20.20;;;2.40;99.90;;;;;;5059723;28;20138;-81
2021/12/06 08:06:03;;;;;;;41.72;19.27;;;2.40;99.90;;;;;;5076660;28;20115;-79
2021/12/06 08:08:31;;;;;;;39.28;18.70;;;2.40;99.90;;;;;;5058684;28;20039;-79
2021/12/06 08:11:04;;;;;;;37.95;18.42;;;2.50;99.90;;;;;;5076946;28;20035;-81
2021/12/06 08:13:32;;;;;;;48.08;21.25;;;2.50;99.90;;;;;;5058546;28;20047;-80
2021/12/06 08:16:01;;;;;;;45.40;19.92;;;2.50;99.90;;;;;;5076761;28;20059;-80
2021/12/06 08:18:27;;;;;;;57.63;22.05;;;2.50;99.90;;;;;;5076346;28;20459;-80
2021/12/06 08:20:53;;;;;;;50.85;22.00;;;2.60;99.90;;;;;;5076391;28;20033;-80
2021/12/06 08:23:19;;;;;;;56.40;23.15;;;2.60;99.90;;;;;;5076207;28;20040;-79
2021/12/06 08:25:48;;;;;;;48.75;20.65;;;2.60;99.90;;;;;;5076123;28;20106;-79
2021/12/06 08:28:15;;;;;;;50.30;20.13;;;2.70;99.90;;;;;;5058327;28;20047;-79
2021/12/06 08:30:41;;;;;;;50.58;21.45;;;2.70;99.90;;;;;;5058208;28;20083;-80
2021/12/06 08:33:08;;;;;;;43.05;19.17;;;2.80;99.90;;;;;;5058145;28;20040;-80
2021/12/06 08:35:40;;;;;;;41.83;20.27;;;2.80;99.90;;;;;;5058081;28;20040;-79
2021/12/06 08:38:07;;;;;;;39.10;18.63;;;2.90;99.90;;;;;;5075717;28;20083;-80
2021/12/06 08:40:34;;;;;;;34.97;17.70;;;2.80;99.90;;;;;;5057940;28;20161;-81
2021/12/06 08:43:00;;;;;;;42.72;19.30;;;2.80;99.90;;;;;;5075099;28;20032;-78
2021/12/06 08:45:28;;;;;;;39.22;18.10;;;2.80;99.90;;;;;;5057859;28;20033;-78
2021/12/06 08:47:54;;;;;;;39.58;19.70;;;2.80;99.90;;;;;;5075705;28;20032;-79
2021/12/06 08:50:22;;;;;;;40.28;19.85;;;2.80;99.90;;;;;;5075658;28;20031;-78
2021/12/06 08:52:49;;;;;;;37.13;17.27;;;2.80;99.90;;;;;;5075993;28;20029;-79
2021/12/06 08:55:16;;;;;;;35.45;17.23;;;2.80;99.90;;;;;;5057879;28;20083;-79
2021/12/06 08:57:42;;;;;;;40.20;18.35;;;2.80;99.90;;;;;;5057605;28;20049;-79
2021/12/06 09:00:16;;;;;;;39.45;18.13;;;2.80;99.90;;;;;;5075799;28;20032;-79
2021/12/06 09:02:42;;;;;;;43.38;20.30;;;2.80;99.90;;;;;;5076172;28;20105;-79
2021/12/06 09:05:08;;;;;;;35.53;17.52;;;2.90;99.90;;;;;;5057633;28;20471;-79
2021/12/06 09:07:35;;;;;;;32.53;16.85;;;2.90;99.90;;;;;;5075705;28;20048;-79
2021/12/06 09:10:02;;;;;;;32.47;16.15;;;2.90;99.90;;;;;;5055781;28;20124;-79
2021/12/06 09:12:29;;;;;;;34.08;18.27;;;2.90;99.90;;;;;;5056143;28;20037;-82
2021/12/06 09:14:59;;;;;;;28.80;15.27;;;3.00;99.90;;;;;;5056624;28;20382;-79
2021/12/06 09:17:26;;;;;;;34.63;17.77;;;3.00;99.90;;;;;;5037386;28;20035;-80
2021/12/06 09:19:52;;;;;;;36.50;17.83;;;3.00;99.90;;;;;;5063241;28;20039;-80
2021/12/06 09:22:19;;;;;;;34.75;17.30;;;3.00;99.90;;;;;;5066426;28;20040;-81
2021/12/06 09:24:47;;;;;;;35.33;18.80;;;3.00;99.90;;;;;;5046081;28;20050;-80
2021/12/06 09:27:12;;;;;;;31.13;16.85;;;3.00;99.90;;;;;;5059447;28;20021;-82
2021/12/06 09:29:39;;;;;;;26.30;14.65;;;3.00;99.90;;;;;;5044765;28;20033;-81
2021/12/06 09:32:07;;;;;;;30.33;16.15;;;3.00;99.90;;;;;;5051631;28;20040;-80
2021/12/06 09:34:34;;;;;;;27.00;13.95;;;3.00;99.90;;;;;;5056806;28;20032;-80
2021/12/06 09:37:00;;;;;;;31.95;16.90;;;3.00;99.90;;;;;;5075592;28;20032;-79
2021/12/06 09:39:26;;;;;;;30.92;15.95;;;3.10;99.90;;;;;;5057679;28;20130;-82
2021/12/06 09:41:53;;;;;;;34.65;19.27;;;3.10;99.90;;;;;;5056884;28;20127;-80
2021/12/06 09:44:19;;;;;;;34.20;18.88;;;3.20;99.90;;;;;;5074660;28;20067;-81
2021/12/06 09:46:45;;;;;;;46.60;27.17;;;3.20;99.90;;;;;;5056630;28;20025;-77
2021/12/06 09:49:15;;;;;;;40.60;23.08;;;3.30;99.90;;;;;;5056697;28;20032;-77
2021/12/06 09:51:44;;;;;;;32.13;18.98;;;3.30;99.90;;;;;;5074354;28;20040;-79
2021/12/06 09:54:10;;;;;;;30.17;17.45;;;3.40;99.90;;;;;;5074470;28;20495;-80
2021/12/06 09:56:41;;;;;;;32.00;18.25;;;3.40;99.90;;;;;;5056735;28;20079;-82
2021/12/06 09:59:10;;;;;;;26.63;15.80;;;3.40;99.90;;;;;;5056657;28;20037;-83
2021/12/06 10:01:42;;;;;;;26.90;15.32;;;3.50;99.90;;;;;;5074536;28;20116;-81
2021/12/06 10:04:10;;;;;;;28.65;15.70;;;3.50;99.90;;;;;;5056553;28;20041;-78
2021/12/06 10:06:35;;;;;;;28.75;16.08;;;3.50;99.90;;;;;;5056755;28;20033;-79
2021/12/06 10:09:06;;;;;;;32.60;16.58;;;3.50;99.90;;;;;;5048888;28;20098;-80
2021/12/06 10:11:32;;;;;;;29.50;15.30;;;3.50;99.90;;;;;;5062356;28;20048;-81
2021/12/06 10:13:58;;;;;;;27.45;14.63;;;3.50;99.90;;;;;;5048348;28;20155;-79
2021/12/06 10:16:24;;;;;;;28.83;14.90;;;3.50;99.90;;;;;;5052570;28;20070;-79
2021/12/06 10:18:51;;;;;;;26.80;14.73;;;3.50;99.90;;;;;;5048440;28;20028;-79
2021/12/06 10:21:18;;;;;;;25.45;13.23;;;3.60;99.90;;;;;;5062665;28;20025;-79
2021/12/06 10:23:43;;;;;;;26.80;14.02;;;3.60;99.90;;;;;;5067742;28;20036;-82
2021/12/06 10:26:13;;;;;;;29.73;14.38;;;3.60;99.90;;;;;;5054561;28;20086;-83
2021/12/06 10:28:42;;;;;;;31.38;16.30;;;3.60;99.90;;;;;;5054647;28;20029;-85
2021/12/06 10:31:09;;;;;;;28.30;14.95;;;3.60;99.90;;;;;;5075070;28;20444;-82
2021/12/06 10:33:47;;;;;;;30.27;14.85;;;3.60;99.90;;;;;;5074159;28;20037;-82
2021/12/06 10:36:16;;;;;;;33.78;15.98;;;3.50;99.90;;;;;;5073610;28;20391;-83
2021/12/06 10:38:47;;;;;;;38.88;15.68;;;3.60;99.90;;;;;;5067289;28;20041;-77
2021/12/06 10:41:15;;;;;;;;;;;3.60;99.90;;;;;;5043646;28;20044;-80
2021/12/06 10:43:59;;;;;;;38.67;17.40;;;3.50;99.90;;;;;;5041600;28;19909;-80
2021/12/06 10:46:31;;;;;;;30.13;14.82;;;3.50;99.90;;;;;;5043652;28;20124;-79
2021/12/06 10:49:00;;;;;;;32.78;16.00;;;3.50;99.90;;;;;;5058421;28;20091;-83
2021/12/06 10:51:27;;;;;;;30.67;15.15;;;3.50;99.90;;;;;;5041946;28;20036;-79
2021/12/06 10:54:03;;;;;;;28.02;13.60;;;3.50;99.90;;;;;;5045262;28;20056;-78
2021/12/06 10:56:39;;;;;;;26.48;13.30;;;3.50;99.90;;;;;;5044703;28;20095;-80
2021/12/06 10:59:10;;;;;;;25.77;13.18;;;3.50;99.90;;;;;;5024594;28;20057;-80
2021/12/06 11:01:36;;;;;;;20.70;11.02;;;3.40;99.90;;;;;;5033812;28;20039;-81
2021/12/06 11:04:06;;;;;;;19.20;11.20;;;3.50;99.90;;;;;;5062807;28;20036;-82
2021/12/06 11:06:44;;;;;;;17.35;10.20;;;3.40;99.90;;;;;;5044396;28;20040;-81
2021/12/06 11:09:14;;;;;;;15.88;8.73;;;3.40;99.90;;;;;;5067957;28;20040;-80
2021/12/06 11:11:44;;;;;;;15.63;8.63;;;3.40;99.90;;;;;;5051054;28;20041;-80
2021/12/06 11:14:22;;;;;;;15.57;9.25;;;3.40;99.90;;;;;;5052399;28;20040;-83
2021/12/06 11:16:58;;;;;;;18.55;9.80;;;3.40;99.90;;;;;;5037515;28;20037;-80
2021/12/06 11:19:26;;;;;;;19.20;9.85;;;3.40;99.90;;;;;;5045889;28;20037;-79
2021/12/06 11:21:54;;;;;;;17.67;9.52;;;3.40;99.90;;;;;;5063486;28;20033;-81
2021/12/06 11:24:29;;;;;;;16.10;9.40;;;3.40;99.90;;;;;;5042206;28;20025;-80
2021/12/06 11:27:21;;;;;;;15.00;8.60;;;3.40;99.90;;;;;;5035316;28;20040;-77
2021/12/06 11:29:51;;;;;;;48.45;24.17;;;3.40;99.90;;;;;;5053891;28;20372;-79
2021/12/06 11:32:31;;;;;;;45.17;26.83;;;3.40;99.90;;;;;;5036046;28;20033;-80
2021/12/06 11:35:03;;;;;;;42.42;24.77;;;3.40;99.90;;;;;;5053020;28;20060;-79
2021/12/06 11:37:32;;;;;;;32.00;18.15;;;3.50;99.90;;;;;;5035662;28;20123;-79
2021/12/06 11:40:09;;;;;;;27.67;15.05;;;3.50;99.90;;;;;;5053325;28;20036;-81
2021/12/06 11:42:56;;;;;;;22.13;13.00;;;3.50;99.90;;;;;;5036278;28;20463;-79
2021/12/06 11:45:52;;;;;;;17.27;10.52;;;3.50;99.90;;;;;;5036244;28;20041;-80
2021/12/06 11:48:30;;;;;;;16.45;9.00;;;3.50;99.90;;;;;;5065513;28;20059;-81
2021/12/06 11:51:16;;;;;;;19.08;10.73;;;3.50;99.90;;;;;;5029322;28;20418;-80
2021/12/06 11:54:02;;;;;;;20.63;10.85;;;3.50;99.90;;;;;;5059002;28;20044;-82
2021/12/06 11:56:37;;;;;;;19.88;10.65;;;3.40;99.90;;;;;;5052177;28;20148;-80
2021/12/06 11:59:07;;;;;;;17.80;10.25;;;3.40;99.90;;;;;;5033267;28;20041;-79
2021/12/06 12:01:37;;;;;;;19.77;11.17;;;3.40;99.90;;;;;;5013317;28;20100;-80
2021/12/06 12:04:10;;;;;;;18.92;10.48;;;3.40;99.90;;;;;;5013227;28;20124;-81
2021/12/06 12:06:39;;;;;;;15.77;8.98;;;3.40;99.90;;;;;;5031280;28;20395;-81
2021/12/06 12:09:40;;;;;;;21.10;11.52;;;3.40;99.90;;;;;;5031555;28;20041;-81
2021/12/06 12:12:10;;;;;;;;;;;3.40;99.90;;;;;;4931933;29;20135;-81
2021/12/06 12:14:49;;;;;;;19.52;8.35;;;3.40;99.90;;;;;;4999051;28;20016;-80
2021/12/06 12:17:36;;;;;;;14.60;8.65;;;3.40;99.90;;;;;;5013916;28;20039;-81
2021/12/06 12:20:08;;;;;;;13.30;7.68;;;3.40;99.90;;;;;;5035651;28;20033;-80
2021/12/06 12:22:34;;;;;;;15.80;9.10;;;3.50;99.90;;;;;;5035701;28;20042;-78
2021/12/06 12:25:08;;;;;;;18.65;9.80;;;3.50;99.90;;;;;;5035675;28;20468;-76
2021/12/06 12:27:46;;;;;;;19.40;9.70;;;3.50;99.90;;;;;;5036759;28;20042;-77
2021/12/06 12:30:13;;;;;;;16.23;9.60;;;3.40;99.90;;;;;;5019451;28;20056;-80
2021/12/06 12:32:39;;;;;;;17.15;9.20;;;3.40;99.90;;;;;;5018467;28;20361;-78
2021/12/06 12:35:12;;;;;;;15.48;8.35;;;3.40;99.90;;;;;;5019275;28;20187;-77
2021/12/06 12:37:40;;;;;;;14.60;8.30;;;3.40;99.90;;;;;;5018379;28;20029;-79
2021/12/06 12:40:15;;;;;;;14.80;8.15;;;3.40;99.90;;;;;;5034913;28;20044;-77
2021/12/06 12:43:04;;;;;;;14.88;8.27;;;3.40;99.90;;;;;;5036321;28;20029;-78
2021/12/06 12:45:36;;;;;;;13.35;7.38;;;3.40;99.90;;;;;;5036052;28;20116;-78
2021/12/06 12:48:02;;;;;;;16.20;8.40;;;3.40;99.90;;;;;;5018167;28;20038;-79
2021/12/06 12:50:30;;;;;;;17.55;9.77;;;3.40;99.90;;;;;;5035949;28;20025;-80
2021/12/06 12:53:04;;;;;;;13.77;8.43;;;3.40;99.90;;;;;;5018216;28;20037;-79
2021/12/06 12:55:42;;;;;;;17.55;9.70;;;3.40;99.90;;;;;;5036578;28;20388;-79
2021/12/06 12:58:23;;;;;;;17.85;9.98;;;3.40;99.90;;;;;;5018639;28;20103;-80